Time;durP1;ratioP1;P1;durP2;ratioP2;P2;SDS_P1;SDS_P2;PMS_P1;PMS_P2;Temp;Humidity;BMP_temperature;BMP_pressure;BME280_temperature;BME280_humidity;BME280_pressure;Samples;Min_cycle;Max_cycle;Signal;HPM_P1;HPM_P2
2021/11/01 00:02:01;;;;;;;1.10;0.80;;;14.90;81.40;;;;;;5136663;27;20043;-53
2021/11/01 00:04:27;;;;;;;1.00;0.77;;;14.90;81.40;;;;;;5136283;27;20051;-55
2021/11/01 00:06:52;;;;;;;1.58;0.90;;;14.90;81.40;;;;;;5135977;27;20372;-55
2021/11/01 00:09:18;;;;;;;0.77;0.75;;;14.90;81.40;;;;;;5117317;27;20054;-56
2021/11/01 00:11:44;;;;;;;1.20;0.80;;;14.90;81.30;;;;;;5136293;27;20047;-56
2021/11/01 00:14:09;;;;;;;2.25;0.82;;;14.90;81.30;;;;;;5136410;27;20428;-55
2021/11/01 00:16:35;;;;;;;0.75;0.70;;;14.90;81.40;;;;;;5136546;27;20467;-55
2021/11/01 00:19:01;;;;;;;1.92;1.00;;;14.90;81.40;;;;;;5135587;27;20118;-54
2021/11/01 00:21:26;;;;;;;1.08;0.98;;;14.90;81.40;;;;;;5135889;27;20441;-56
2021/11/01 00:23:52;;;;;;;1.30;0.80;;;15.00;81.40;;;;;;5135872;27;20543;-53
2021/11/01 00:26:18;;;;;;;1.70;0.95;;;14.90;81.40;;;;;;5117143;27;20134;-55
2021/11/01 00:28:45;;;;;;;1.27;0.77;;;14.90;81.40;;;;;;5135560;27;20078;-56
2021/11/01 00:31:11;;;;;;;2.10;0.95;;;14.90;81.40;;;;;;5135929;27;20084;-54
2021/11/01 00:33:38;;;;;;;0.95;0.88;;;15.00;81.40;;;;;;5136098;27;20121;-54
2021/11/01 00:36:04;;;;;;;1.67;0.90;;;14.90;81.40;;;;;;5117040;27;20089;-55
2021/11/01 00:38:30;;;;;;;0.70;0.70;;;14.90;81.40;;;;;;5135638;27;20038;-52
2021/11/01 00:40:56;;;;;;;1.42;1.10;;;14.90;81.40;;;;;;5135671;27;20487;-55
2021/11/01 00:43:22;;;;;;;1.27;0.98;;;14.90;82.00;;;;;;5135954;27;20462;-55
2021/11/01 00:45:48;;;;;;;0.65;0.60;;;14.90;81.40;;;;;;5135942;27;20042;-51
2021/11/01 00:48:14;;;;;;;1.30;0.70;;;14.90;81.30;;;;;;5135574;27;20043;-55
2021/11/01 00:50:41;;;;;;;1.55;0.80;;;15.00;81.40;;;;;;5135316;27;20119;-55
2021/11/01 00:53:07;;;;;;;1.63;0.80;;;14.90;81.40;;;;;;5135086;27;20043;-54
2021/11/01 00:55:48;;;;;;;1.00;0.80;;;14.90;81.40;;;;;;5135473;27;20046;-54
2021/11/01 00:58:15;;;;;;;1.15;0.77;;;14.90;81.40;;;;;;5135080;27;20130;-55
2021/11/01 01:00:41;;;;;;;0.80;0.65;;;14.90;81.40;;;;;;5135245;27;20092;-55
2021/11/01 01:03:09;;;;;;;2.58;0.82;;;14.90;81.40;;;;;;5135504;27;20070;-54
2021/11/01 01:05:35;;;;;;;3.20;1.05;;;14.90;81.40;;;;;;5135116;27;20516;-53
2021/11/01 01:08:01;;;;;;;1.30;0.82;;;14.90;81.40;;;;;;5134822;27;20047;-55
2021/11/01 01:10:26;;;;;;;3.78;1.20;;;14.90;81.40;;;;;;5134851;27;20053;-54
2021/11/01 01:12:52;;;;;;;1.02;0.90;;;14.90;81.40;;;;;;5134962;27;20436;-53
2021/11/01 01:15:24;;;;;;;1.10;0.82;;;14.90;81.40;;;;;;5135021;27;20556;-55
2021/11/01 01:17:51;;;;;;;1.25;0.80;;;14.90;81.40;;;;;;5134944;27;20049;-55
2021/11/01 01:20:19;;;;;;;1.70;1.00;;;14.90;81.40;;;;;;5135173;27;20434;-54
2021/11/01 01:22:46;;;;;;;2.28;0.95;;;14.90;81.40;;;;;;5134500;27;20089;-54
2021/11/01 01:25:40;;;;;;;1.92;0.85;;;14.90;81.40;;;;;;5134306;27;20078;-55
2021/11/01 01:28:07;;;;;;;0.70;0.70;;;14.90;81.40;;;;;;5134644;27;20402;-55
2021/11/01 01:30:33;;;;;;;0.85;0.75;;;14.90;81.40;;;;;;5134934;27;20047;-56
2021/11/01 01:32:59;;;;;;;2.83;0.90;;;14.90;81.40;;;;;;5134557;27;20039;-56
2021/11/01 01:35:24;;;;;;;1.10;0.85;;;14.90;81.40;;;;;;5134661;27;20440;-55
2021/11/01 01:37:53;;;;;;;1.58;0.90;;;14.90;81.40;;;;;;5134534;27;20478;-54
2021/11/01 01:40:20;;;;;;;2.53;1.05;;;14.90;81.40;;;;;;5134169;27;20054;-55
2021/11/01 01:42:46;;;;;;;1.48;0.98;;;14.90;81.40;;;;;;5134267;27;20078;-54
2021/11/01 01:45:12;;;;;;;1.33;0.98;;;14.90;81.40;;;;;;5134448;27;20070;-55
2021/11/01 01:47:40;;;;;;;1.10;0.70;;;14.90;81.40;;;;;;5134311;27;20073;-51
2021/11/01 01:50:08;;;;;;;1.05;0.70;;;14.90;81.40;;;;;;5134558;27;20047;-56
2021/11/01 01:52:33;;;;;;;1.92;0.90;;;14.90;81.40;;;;;;5134445;27;20047;-54
2021/11/01 01:54:59;;;;;;;0.80;0.80;;;14.90;81.40;;;;;;5133592;27;20364;-55
2021/11/01 01:57:25;;;;;;;2.28;0.73;;;14.90;81.40;;;;;;5134404;27;20027;-55
2021/11/01 01:59:51;;;;;;;1.38;0.80;;;14.90;81.40;;;;;;5134538;27;20050;-55
2021/11/01 02:02:17;;;;;;;2.45;0.80;;;14.90;81.40;;;;;;5134268;27;20031;-52
2021/11/01 02:04:43;;;;;;;0.98;0.88;;;14.90;81.30;;;;;;5133838;27;20039;-55
2021/11/01 02:07:28;;;;;;;1.45;0.70;;;14.90;81.40;;;;;;5133750;27;20499;-54
2021/11/01 02:10:00;;;;;;;;;;;14.90;81.30;;;;;;5133744;27;20054;-54
2021/11/01 02:12:50;;;;;;;0.90;0.85;;;14.90;81.20;;;;;;5133824;27;19967;-55
2021/11/01 02:15:49;;;;;;;1.30;0.98;;;14.80;81.40;;;;;;5133541;27;20039;-56
2021/11/01 02:18:17;;;;;;;1.27;1.10;;;14.90;81.30;;;;;;5133917;27;20114;-54
2021/11/01 02:20:48;;;;;;;1.65;0.73;;;14.90;81.50;;;;;;5134149;27;20099;-52
2021/11/01 02:23:35;;;;;;;2.38;0.93;;;14.90;81.40;;;;;;5133744;27;20380;-55
2021/11/01 02:26:03;;;;;;;1.98;0.88;;;14.80;81.40;;;;;;5133446;27;20137;-55
2021/11/01 02:28:35;;;;;;;1.33;0.93;;;14.90;81.40;;;;;;5133322;27;20043;-56
2021/11/01 02:31:03;;;;;;;1.17;0.68;;;14.90;81.40;;;;;;5133888;27;20039;-55
2021/11/01 02:33:30;;;;;;;0.95;0.88;;;14.80;81.40;;;;;;5134058;28;20035;-56
2021/11/01 02:35:56;;;;;;;3.13;1.02;;;14.80;81.40;;;;;;5133569;28;20363;-56
2021/11/01 02:38:25;;;;;;;0.80;0.80;;;14.80;81.40;;;;;;5133953;28;20039;-56
2021/11/01 02:40:51;;;;;;;1.67;0.98;;;14.90;81.40;;;;;;5133885;28;20045;-51
2021/11/01 02:43:18;;;;;;;1.02;0.80;;;14.90;81.40;;;;;;5133358;28;20035;-55
2021/11/01 02:45:44;;;;;;;1.33;0.70;;;14.90;81.40;;;;;;5133949;28;20045;-56
2021/11/01 02:48:10;;;;;;;2.42;0.90;;;14.80;81.40;;;;;;5132917;28;20042;-55
2021/11/01 02:50:37;;;;;;;2.30;0.77;;;14.90;81.40;;;;;;5133688;28;20043;-55
2021/11/01 02:53:03;;;;;;;1.65;0.80;;;14.90;81.30;;;;;;5133607;28;20626;-55
2021/11/01 02:55:29;;;;;;;1.38;0.63;;;14.80;81.30;;;;;;5133935;28;20134;-55
2021/11/01 02:57:55;;;;;;;2.20;0.98;;;14.80;81.30;;;;;;5133451;28;20431;-55
2021/11/01 03:00:25;;;;;;;1.10;0.70;;;14.90;81.30;;;;;;5133495;28;20031;-55
2021/11/01 03:02:51;;;;;;;0.77;0.70;;;14.90;81.40;;;;;;5133587;28;20047;-55
2021/11/01 03:05:20;;;;;;;1.77;0.85;;;14.90;81.30;;;;;;5133408;28;20043;-56
2021/11/01 03:07:48;;;;;;;1.50;0.98;;;14.80;81.30;;;;;;5133009;28;20473;-50
2021/11/01 03:10:15;;;;;;;1.33;0.98;;;14.90;81.40;;;;;;5133338;28;20039;-55
2021/11/01 03:12:44;;;;;;;1.02;0.70;;;14.90;81.30;;;;;;5133655;28;20036;-55
2021/11/01 03:15:21;;;;;;;1.55;0.80;;;14.80;81.30;;;;;;5133036;28;20050;-56
2021/11/01 03:17:52;;;;;;;1.17;0.85;;;14.90;81.30;;;;;;5133364;28;20092;-53
2021/11/01 03:20:23;;;;;;;0.88;0.75;;;14.80;81.30;;;;;;5132983;27;20039;-55
2021/11/01 03:22:53;;;;;;;1.30;0.95;;;14.80;81.30;;;;;;5137458;27;20051;-55
2021/11/01 03:25:30;;;;;;;1.10;0.70;;;14.90;81.30;;;;;;5137245;27;20075;-55
2021/11/01 03:27:57;;;;;;;1.17;0.70;;;14.90;81.30;;;;;;5102167;27;20418;-55
2021/11/01 03:30:24;;;;;;;1.63;0.60;;;14.80;81.30;;;;;;5136376;27;20038;-55
2021/11/01 03:32:52;;;;;;;1.23;0.80;;;14.80;81.30;;;;;;5137187;27;20039;-56
2021/11/01 03:35:19;;;;;;;0.88;0.70;;;14.90;81.30;;;;;;5118604;27;20047;-55
2021/11/01 03:37:46;;;;;;;1.95;0.75;;;14.90;81.30;;;;;;5118644;27;20050;-56
2021/11/01 03:40:19;;;;;;;2.38;0.90;;;14.90;81.30;;;;;;5136564;27;20035;-55
2021/11/01 03:42:51;;;;;;;1.73;0.90;;;14.80;81.30;;;;;;5136968;27;20494;-56
2021/11/01 03:45:18;;;;;;;0.95;0.70;;;14.80;81.30;;;;;;5117982;27;20046;-55
2021/11/01 03:47:47;;;;;;;2.03;0.80;;;14.90;81.30;;;;;;5136752;27;20398;-55
2021/11/01 03:52:43;;;;;;;1.33;0.70;;;14.80;81.30;;;;;;5136489;27;20054;-55
2021/11/01 03:55:10;;;;;;;1.30;0.70;;;14.80;81.30;;;;;;5136612;27;20479;-55
2021/11/01 03:57:36;;;;;;;1.75;0.68;;;14.80;81.30;;;;;;5136859;27;20088;-54
2021/11/01 04:00:06;;;;;;;2.30;0.82;;;14.80;81.30;;;;;;5136160;27;20039;-56
2021/11/01 04:02:32;;;;;;;1.10;0.82;;;14.80;81.30;;;;;;5135804;27;20035;-55
2021/11/01 04:05:01;;;;;;;1.00;0.90;;;14.80;81.50;;;;;;5136398;27;20540;-54
2021/11/01 04:07:28;;;;;;;2.83;0.80;;;14.80;81.30;;;;;;5136594;27;20050;-55
2021/11/01 04:09:54;;;;;;;1.05;0.82;;;14.90;81.30;;;;;;5135661;27;20035;-56
2021/11/01 04:12:20;;;;;;;1.67;0.90;;;14.80;81.20;;;;;;5136431;27;20093;-56
2021/11/01 04:14:50;;;;;;;1.85;0.80;;;14.80;81.30;;;;;;5135931;27;20078;-55
2021/11/01 04:17:35;;;;;;;1.48;0.75;;;14.80;81.30;;;;;;5136186;27;20114;-55
2021/11/01 04:22:33;;;;;;;1.13;0.90;;;14.80;81.90;;;;;;5135978;27;20050;-56
2021/11/01 04:25:00;;;;;;;1.30;0.85;;;14.80;81.30;;;;;;5135861;27;20050;-56
2021/11/01 04:27:26;;;;;;;0.77;0.70;;;14.90;81.30;;;;;;5135810;27;20043;-56
2021/11/01 04:29:52;;;;;;;0.88;0.63;;;14.80;81.30;;;;;;5135743;27;20583;-56
2021/11/01 04:32:30;;;;;;;1.85;0.90;;;14.80;81.30;;;;;;5134846;27;20086;-54
2021/11/01 04:35:03;;;;;;;1.63;0.95;;;14.80;81.30;;;;;;5116744;27;20047;-56
2021/11/01 04:37:29;;;;;;;1.42;1.08;;;14.80;81.30;;;;;;5117573;27;20051;-56
2021/11/01 04:53:09;;;;;;;1.23;0.65;;;14.80;81.90;;;;;;5135369;27;20122;-56
2021/11/01 04:55:35;;;;;;;0.93;0.70;;;14.80;81.20;;;;;;5116891;27;20051;-55
2021/11/01 04:58:02;;;;;;;1.27;0.88;;;14.80;81.20;;;;;;5135516;27;20043;-53
2021/11/01 05:00:28;;;;;;;1.00;0.70;;;14.80;81.20;;;;;;5117066;27;20061;-55
2021/11/01 05:05:32;;;;;;;1.95;0.70;;;14.80;81.20;;;;;;5134647;27;20046;-53
2021/11/01 05:08:00;;;;;;;1.27;0.57;;;14.70;81.20;;;;;;5134483;27;20051;-53
2021/11/01 05:10:34;;;;;;;0.98;0.73;;;14.80;81.20;;;;;;5134727;27;20137;-56
2021/11/01 05:13:04;;;;;;;1.40;0.77;;;14.80;81.20;;;;;;5134868;27;20406;-52
2021/11/01 05:15:43;;;;;;;1.65;0.90;;;14.80;81.20;;;;;;5135158;27;20043;-55
2021/11/01 05:21:20;;;;;;;1.40;0.65;;;14.80;81.20;;;;;;5134822;27;20039;-53
2021/11/01 05:23:49;;;;;;;1.67;0.88;;;14.70;81.20;;;;;;5130305;27;20487;-55
2021/11/01 05:26:23;;;;;;;0.50;0.50;;;14.80;81.20;;;;;;5129952;27;20066;-56
2021/11/01 05:28:53;;;;;;;1.00;0.80;;;14.80;81.30;;;;;;5114099;28;20047;-51
2021/11/01 05:31:22;;;;;;;1.92;0.82;;;14.80;81.20;;;;;;5114600;28;20445;-53
2021/11/01 05:33:54;;;;;;;0.95;0.65;;;14.80;81.20;;;;;;5114322;28;20045;-54
2021/11/01 05:36:21;;;;;;;1.27;0.90;;;14.80;81.20;;;;;;5133097;27;20043;-55
2021/11/01 05:38:49;;;;;;;1.48;0.75;;;14.80;81.30;;;;;;5134375;27;20483;-55
2021/11/01 05:41:14;;;;;;;1.55;0.68;;;14.80;81.20;;;;;;5134399;27;20403;-55
2021/11/01 05:43:40;;;;;;;1.05;0.68;;;14.80;81.20;;;;;;5134219;27;20043;-53
2021/11/01 05:46:06;;;;;;;1.20;0.75;;;14.80;81.20;;;;;;5133808;27;20035;-54
2021/11/01 05:48:32;;;;;;;0.73;0.65;;;14.80;81.20;;;;;;5134268;27;20088;-55
2021/11/01 05:50:58;;;;;;;1.33;0.80;;;14.80;81.20;;;;;;5134230;27;20518;-54
2021/11/01 05:53:27;;;;;;;0.90;0.60;;;14.80;81.80;;;;;;5133815;27;20043;-56
2021/11/01 05:58:51;;;;;;;0.60;0.60;;;14.70;81.20;;;;;;5134380;27;20050;-55
2021/11/01 06:07:24;;;;;;;1.85;0.75;;;14.80;81.30;;;;;;5053325;28;20550;-56
2021/11/01 06:14:53;;;;;;;0.85;0.60;;;14.70;81.20;;;;;;5070624;28;20044;-56
2021/11/01 06:17:18;;;;;;;1.55;0.70;;;14.70;81.20;;;;;;5070070;28;20052;-55
2021/11/01 06:19:44;;;;;;;0.88;0.50;;;14.80;81.90;;;;;;5070564;28;20033;-55
2021/11/01 06:22:10;;;;;;;0.85;0.57;;;14.80;81.20;;;;;;5070568;28;20045;-55
2021/11/01 06:24:58;;;;;;;1.42;0.60;;;14.80;81.20;;;;;;5069552;28;20064;-56
2021/11/01 06:27:25;;;;;;;0.77;0.50;;;14.70;81.20;;;;;;5052393;28;20079;-53
2021/11/01 06:40:36;;;;;;;1.70;0.80;;;14.70;81.10;;;;;;5069846;28;20044;-50
2021/11/01 06:43:07;;;;;;;1.73;0.80;;;14.80;81.20;;;;;;5080079;28;20047;-55
2021/11/01 06:56:05;;;;;;;1.02;0.63;;;14.70;81.10;;;;;;5134128;27;20060;-56
2021/11/01 07:26:01;;;;;;;0.52;0.50;;;14.80;81.20;;;;;;5137172;27;20054;-54
2021/11/01 08:38:16;;;;;;;0.70;0.68;;;14.70;81.10;;;;;;5133318;27;20448;-55
2021/11/01 08:43:21;;;;;;;1.25;0.85;;;14.70;81.10;;;;;;5135636;27;20050;-56
2021/11/01 09:07:20;;;;;;;0.50;0.50;;;14.70;81.00;;;;;;5121830;27;20776;-49
2021/11/01 09:20:38;;;;;;;0.70;0.70;;;14.70;81.10;;;;;;5130500;27;20051;-54
2021/11/01 09:41:49;;;;;;;0.75;0.60;;;14.70;81.00;;;;;;5046363;28;20041;-49
2021/11/01 09:44:20;;;;;;;1.45;0.70;;;14.80;81.10;;;;;;5046043;28;20060;-51
2021/11/01 09:46:47;;;;;;;0.63;0.50;;;14.70;81.00;;;;;;5046431;28;20091;-54
2021/11/01 09:49:14;;;;;;;1.25;0.80;;;14.70;81.00;;;;;;5045358;28;20052;-52
2021/11/01 09:51:50;;;;;;;0.70;0.70;;;14.70;81.00;;;;;;5046580;28;20460;-53
2021/11/01 09:54:20;;;;;;;0.70;0.70;;;14.70;81.00;;;;;;5045759;28;20577;-50
2021/11/01 09:56:58;;;;;;;0.73;0.70;;;14.70;81.00;;;;;;5044753;28;20575;-51
2021/11/01 09:59:27;;;;;;;1.35;0.80;;;14.70;80.90;;;;;;5045373;28;20435;-54
2021/11/01 10:01:53;;;;;;;7.53;2.45;;;14.70;81.00;;;;;;5060657;28;20120;-56
2021/11/01 10:04:24;;;;;;;1.73;1.30;;;14.70;79.80;;;;;;5112670;28;20035;-56
2021/11/01 10:07:18;;;;;;;1.17;1.00;;;14.70;79.80;;;;;;5112530;28;20044;-50
2021/11/01 10:09:45;;;;;;;3.60;1.23;;;14.70;80.00;;;;;;5113794;27;20039;-52
2021/11/01 10:12:33;;;;;;;2.25;1.27;;;14.70;80.20;;;;;;5133235;27;20039;-57
2021/11/01 10:15:00;;;;;;;2.53;1.73;;;14.70;80.20;;;;;;5133291;27;20047;-57
2021/11/01 10:17:35;;;;;;;1.38;1.20;;;14.60;80.30;;;;;;5133303;27;20050;-56
2021/11/01 10:20:10;;;;;;;1.30;1.20;;;14.70;80.40;;;;;;5133166;27;20043;-55
2021/11/01 10:22:38;;;;;;;2.35;1.10;;;14.70;80.40;;;;;;5133053;27;20107;-53
2021/11/01 10:25:07;;;;;;;3.63;1.77;;;14.60;80.40;;;;;;5132844;27;20031;-57
2021/11/01 10:27:38;;;;;;;2.13;1.48;;;14.70;80.50;;;;;;5133243;27;20066;-49
2021/11/01 10:30:06;;;;;;;3.92;1.83;;;14.70;80.50;;;;;;5132334;27;20458;-54
2021/11/01 10:32:38;;;;;;;3.38;1.45;;;14.70;80.00;;;;;;5132525;27;20045;-52
2021/11/01 10:35:19;;;;;;;2.55;1.52;;;14.60;80.00;;;;;;5132814;27;20039;-53
2021/11/01 10:40:59;;;;;;;2.97;1.33;;;14.60;80.10;;;;;;5133209;28;20141;-58
2021/11/01 11:11:30;;;;;;;2.67;1.40;;;14.70;80.70;;;;;;5069036;28;20041;-60
2021/11/01 11:14:04;;;;;;;2.63;1.35;;;14.70;80.70;;;;;;5052576;28;20088;-56
2021/11/01 11:24:37;;;;;;;2.53;1.23;;;14.70;80.70;;;;;;5078046;28;20100;-54
2021/11/01 11:47:40;;;;;;;2.00;1.20;;;14.70;80.70;;;;;;5072965;28;20037;-57
2021/11/01 11:50:22;;;;;;;2.65;1.33;;;14.70;80.70;;;;;;5107013;28;20043;-55
2021/11/01 11:52:49;;;;;;;1.58;1.00;;;14.70;80.70;;;;;;5106365;28;20051;-57
2021/11/01 11:55:18;;;;;;;1.55;0.98;;;14.70;80.70;;;;;;5072536;28;20048;-56
2021/11/01 11:57:52;;;;;;;2.33;0.90;;;14.60;80.60;;;;;;5072488;28;20504;-57
2021/11/01 12:00:18;;;;;;;1.52;1.00;;;14.70;80.70;;;;;;5072452;28;20040;-51
2021/11/01 12:02:46;;;;;;;1.48;0.98;;;14.80;80.70;;;;;;5072608;28;20500;-54
2021/11/01 12:05:36;;;;;;;3.10;1.17;;;14.70;80.70;;;;;;5073825;28;20041;-50
2021/11/01 12:08:07;;;;;;;0.82;0.80;;;14.80;80.70;;;;;;5088839;28;20056;-48
2021/11/01 12:19:01;;;;;;;1.37;1.13;;;14.80;80.70;;;;;;5135735;27;20383;-49
2021/11/01 12:21:27;;;;;;;1.30;1.00;;;14.80;80.70;;;;;;5135780;27;20281;-47
2021/11/01 12:23:54;;;;;;;1.48;0.77;;;14.70;80.70;;;;;;5116327;27;20031;-52
2021/11/01 12:26:22;;;;;;;1.15;0.93;;;14.70;80.70;;;;;;5135236;27;20118;-49
2021/11/01 12:29:13;;;;;;;1.55;1.20;;;14.70;80.70;;;;;;5135563;27;20170;-46
2021/11/01 12:31:39;;;;;;;2.10;1.10;;;14.80;80.60;;;;;;5032585;28;20049;-50
2021/11/01 12:34:21;;;;;;;1.00;0.85;;;14.80;80.70;;;;;;5032671;28;20065;-48
2021/11/01 12:58:54;;;;;;;1.15;1.05;;;14.80;80.70;;;;;;5030976;28;20513;-48
2021/11/01 13:01:21;;;;;;;1.15;0.80;;;14.80;80.70;;;;;;5032148;28;20441;-52
2021/11/01 13:04:26;;;;;;;1.48;0.75;;;14.80;80.70;;;;;;5031901;28;20085;-53
2021/11/01 13:09:30;;;;;;;0.73;0.73;;;14.80;80.70;;;;;;5116411;27;20054;-53
2021/11/01 13:19:52;;;;;;;0.95;0.90;;;14.80;80.70;;;;;;5134650;27;20133;-49
2021/11/01 13:22:37;;;;;;;0.60;0.60;;;14.80;80.70;;;;;;5135000;27;20043;-54
2021/11/01 13:38:51;;;;;;;0.85;0.63;;;14.80;80.70;;;;;;5134789;27;20395;-47
2021/11/01 13:41:29;;;;;;;0.55;0.50;;;14.80;80.70;;;;;;5133827;27;20372;-50
2021/11/01 13:44:14;;;;;;;0.80;0.80;;;14.80;80.70;;;;;;5134617;27;20043;-48
2021/11/01 13:46:45;;;;;;;2.47;1.00;;;14.80;80.60;;;;;;5134001;27;20039;-50
2021/11/01 13:49:11;;;;;;;1.10;0.90;;;14.80;80.70;;;;;;5149716;27;20042;-46
2021/11/01 13:51:37;;;;;;;0.77;0.77;;;14.80;80.70;;;;;;5114993;27;20039;-50
2021/11/01 14:02:41;;;;;;;1.10;0.50;;;14.90;80.70;;;;;;5131649;27;20490;-52
2021/11/01 14:19:00;;;;;;;1.30;0.73;;;14.80;80.70;;;;;;5124653;27;20377;-49
2021/11/01 15:34:54;;;;;;;0.50;0.50;;;14.80;80.90;;;;;;5009596;28;20149;-60
2021/11/01 16:18:42;;;;;;;1.10;0.80;;;14.90;80.60;;;;;;5089376;28;20044;-52
2021/11/01 16:21:09;;;;;;;0.50;0.50;;;14.90;80.60;;;;;;5072492;28;20048;-48
2021/11/01 16:23:37;;;;;;;0.65;0.52;;;14.80;80.50;;;;;;5088382;28;20056;-52
2021/11/01 16:26:14;;;;;;;0.50;0.50;;;14.80;80.50;;;;;;5089177;28;20052;-48
2021/11/01 16:28:43;;;;;;;0.70;0.68;;;14.90;80.50;;;;;;5088479;28;20060;-48
2021/11/01 16:33:47;;;;;;;0.60;0.50;;;14.80;80.50;;;;;;5089375;28;20098;-48
2021/11/01 16:39:47;;;;;;;0.50;0.50;;;14.80;80.50;;;;;;5108935;28;20179;-59
2021/11/01 16:42:22;;;;;;;0.85;0.60;;;14.80;80.40;;;;;;5078168;28;20056;-56
2021/11/01 16:44:48;;;;;;;0.50;0.50;;;14.80;80.50;;;;;;5098719;28;20566;-48
2021/11/01 16:47:16;;;;;;;0.68;0.63;;;14.80;81.10;;;;;;5089428;28;20367;-59
2021/11/01 16:49:43;;;;;;;0.47;0.47;;;15.00;80.60;;;;;;5119255;27;20134;-51
2021/11/01 16:52:16;;;;;;;0.75;0.70;;;14.80;80.40;;;;;;5113153;27;20059;-50
2021/11/01 16:54:54;;;;;;;0.50;0.50;;;14.90;80.40;;;;;;5110692;28;20043;-59
2021/11/01 16:57:31;;;;;;;2.15;0.50;;;14.80;80.40;;;;;;5111013;28;20082;-48
2021/11/01 17:05:24;;;;;;;0.63;0.63;;;14.80;80.40;;;;;;5110597;28;20065;-54
2021/11/01 17:24:18;;;;;;;0.55;0.55;;;14.90;80.40;;;;;;5110557;28;20143;-58
2021/11/01 18:44:03;;;;;;;0.70;0.70;;;14.80;80.30;;;;;;5133644;28;20058;-54
2021/11/01 18:52:01;;;;;;;1.10;0.70;;;14.80;80.30;;;;;;5113828;28;20135;-50
2021/11/01 18:54:35;;;;;;;1.05;0.80;;;14.80;80.30;;;;;;5134238;27;20483;-52
2021/11/01 18:57:02;;;;;;;0.40;0.40;;;14.80;80.30;;;;;;5137344;27;20043;-51
2021/11/01 18:59:30;;;;;;;1.05;0.70;;;14.80;80.30;;;;;;5137235;27;20483;-47
2021/11/01 19:04:35;;;;;;;1.23;0.68;;;14.80;80.30;;;;;;5133949;27;20055;-55
2021/11/01 19:10:28;;;;;;;0.75;0.70;;;14.80;80.30;;;;;;5133720;27;20145;-54
2021/11/01 21:27:39;;;;;;;0.60;0.60;;;14.70;80.40;;;;;;5130575;27;20047;-63
2021/11/01 21:30:09;;;;;;;0.98;0.75;;;14.70;80.40;;;;;;5130084;27;20055;-60
2021/11/01 21:32:34;;;;;;;0.77;0.65;;;14.70;80.40;;;;;;5131547;27;20080;-63
2021/11/01 21:35:09;;;;;;;0.70;0.63;;;14.70;80.40;;;;;;5112996;27;20046;-62
2021/11/01 21:37:39;;;;;;;0.70;0.60;;;14.70;80.40;;;;;;5114391;27;20078;-60
2021/11/01 21:40:09;;;;;;;0.52;0.52;;;14.70;80.40;;;;;;5133600;27;20045;-59
2021/11/01 21:42:36;;;;;;;0.90;0.50;;;14.70;80.40;;;;;;5115922;27;20047;-62
2021/11/01 21:45:09;;;;;;;1.23;0.80;;;14.70;80.40;;;;;;5134639;27;20470;-62
2021/11/01 21:47:35;;;;;;;1.27;0.77;;;14.70;80.40;;;;;;5134501;27;20042;-52
2021/11/01 21:50:06;;;;;;;0.65;0.50;;;14.70;80.40;;;;;;5134163;27;20422;-58
2021/11/01 21:52:36;;;;;;;0.60;0.60;;;14.70;80.40;;;;;;5134370;27;20066;-56
2021/11/01 21:55:08;;;;;;;0.40;0.40;;;14.70;80.40;;;;;;5133142;27;20046;-61
2021/11/01 21:57:46;;;;;;;0.73;0.55;;;14.70;80.40;;;;;;5133024;27;20047;-61
2021/11/01 22:23:02;;;;;;;0.80;0.80;;;14.70;80.40;;;;;;5061310;28;20053;-63
2021/11/01 22:25:39;;;;;;;0.95;0.63;;;14.80;80.50;;;;;;5069362;28;20104;-61
2021/11/01 22:33:58;;;;;;;1.05;0.70;;;14.70;80.40;;;;;;5053703;28;20080;-60
2021/11/01 22:39:28;;;;;;;0.50;0.50;;;14.70;80.40;;;;;;5069283;28;20040;-61
2021/11/01 22:55:59;;;;;;;0.50;0.50;;;14.70;80.40;;;;;;5104809;28;20052;-58
2021/11/01 22:58:40;;;;;;;0.60;0.60;;;14.70;80.40;;;;;;5094267;28;20068;-63
2021/11/01 23:01:12;;;;;;;0.50;0.50;;;14.70;80.30;;;;;;5093541;28;20070;-62
2021/11/01 23:33:28;;;;;;;0.75;0.60;;;14.60;80.30;;;;;;5098927;28;20046;-62
2021/11/01 23:35:55;;;;;;;0.85;0.60;;;14.60;81.00;;;;;;5097157;28;20040;-62
2021/11/01 23:38:21;;;;;;;1.50;0.70;;;14.60;80.30;;;;;;5096589;28;20047;-63
2021/11/01 23:40:47;;;;;;;0.70;0.60;;;14.60;80.30;;;;;;5114542;27;20043;-62
2021/11/01 23:43:13;;;;;;;0.73;0.40;;;14.60;80.30;;;;;;5116435;28;20046;-61
2021/11/01 23:45:41;;;;;;;0.75;0.73;;;14.70;80.40;;;;;;5115861;28;20043;-60
2021/11/01 23:48:07;;;;;;;1.55;0.63;;;14.50;80.20;;;;;;5114081;28;20134;-62
2021/11/01 23:50:34;;;;;;;1.02;0.77;;;14.60;80.30;;;;;;5104390;28;20036;-61
2021/11/01 23:53:07;;;;;;;0.90;0.80;;;14.60;80.30;;;;;;5095394;28;20055;-62
2021/11/01 23:55:33;;;;;;;0.82;0.73;;;14.60;80.30;;;;;;5108839;28;20050;-62
2021/11/01 23:58:00;;;;;;;0.98;0.95;;;14.60;80.30;;;;;;5115780;28;20039;-61
